Aérodrome :
LOGIN :

S'inscrire | Disclaimer

   EN    FR    IT 

 










Légende :    VFR   VFR Marginal   IFR   IFR Intensif   IFR Très Intensif
Visi : 
Plafond : 
>= 8 km
>= 3000ft
5 à 8 km
1000 à 3000 ft
1500m à 5 km
500 à 1000 ft
800 à 1500m
200 à 500 ft
< 800m
< 200 ft
Symboles :   Orages  Brouillard  Fortes neiges  Fortes précipitations  Vent > 20 kt
SIGMETs :   Divers  Orages  Givrage  Turbulence  Onde Orograph.  Cendres Volcan.






- Altitude de l'aérodrome : 670 ft
- Code IATA : MSQ


UMMS - Minsk - 2

DERNIER METAR :
  • 211930Z 28008MPS 9999 OVC008 04/03 Q1018 R88/290048 NOSIG

METARs EXPIRÉS :
  • 211900Z 27008G11MPS 9999 OVC007 04/03 Q1018 R88/290048 NOSIG
  • 211830Z 27005G09MPS 7000 -RA OVC007 04/03 Q1018 R88/290048 NOSIG
  • 211800Z 28008G11MPS 9999 OVC008 04/03 Q1018 R88/290048 NOSIG
  • 211730Z 28007G10MPS 9000 OVC007 04/03 Q1018 R31R/190050 R31L/////// NOSIG
  • 211700Z 28008G11MPS 9999 OVC008 04/03 Q1018 R31R/190050 R31L/////// NOSIG

TAF TAF UMMS
Valide du 21 à 18h jusqu'au 22 à 18h UTC


211703Z 2118/2218 27008G13MPS 8000 BKN005
TEMPO 2118/2206 29012G17MPS 1200 SHRASN BR BKN003 BKN012CB
TEMPO 2206/2218 31012G17MPS 1500 SHSNRA BKN003 BKN010CB



MET'MAP, la Météo Aéronautique d'un coup d'oeil ! - Copyright ORBIFLY Décembre 2007 - Disclaimer

ORBIFLY MET'MAP TEAM :

Programmation & Développement : Alexandra Zaïnal
Sur une idée originale de : Baudouin d'Aumeries
Assistance à la programmation : Marc-Olivier Méhu
Soutien technique & logistique : Manuel Goepfert

Contact : metmap@orbifly.com




SOURCES & CREDITS :

   NOAA